sensor_id;sensor_type;location;lat;lon;timestamp;P1;durP1;ratioP1;P2;durP2;ratioP2
21804;SDS011;11064;47.102;15.452;2022-09-29T04:02:42;3.92;;;1.77;;
21804;SDS011;11064;47.102;15.452;2022-09-29T04:05:08;2.42;;;1.60;;
21804;SDS011;11064;47.102;15.452;2022-09-29T04:07:34;1.70;;;1.60;;
21804;SDS011;11064;47.102;15.452;2022-09-29T04:09:59;1.50;;;1.40;;
21804;SDS011;11064;47.102;15.452;2022-09-29T04:12:25;1.73;;;1.45;;
21804;SDS011;11064;47.102;15.452;2022-09-29T04:14:51;2.33;;;1.45;;
21804;SDS011;11064;47.102;15.452;2022-09-29T04:17:17;1.95;;;1.20;;
21804;SDS011;11064;47.102;15.452;2022-09-29T04:19:42;2.58;;;1.55;;
21804;SDS011;11064;47.102;15.452;2022-09-29T04:22:08;1.77;;;1.48;;
21804;SDS011;11064;47.102;15.452;2022-09-29T04:24:34;1.50;;;1.40;;
21804;SDS011;11064;47.102;15.452;2022-09-29T04:26:59;1.73;;;1.10;;
21804;SDS011;11064;47.102;15.452;2022-09-29T04:29:25;1.17;;;1.08;;
21804;SDS011;11064;47.102;15.452;2022-09-29T04:31:51;1.30;;;1.00;;
21804;SDS011;11064;47.102;15.452;2022-09-29T04:34:16;0.80;;;0.80;;
21804;SDS011;11064;47.102;15.452;2022-09-29T04:36:42;2.75;;;1.40;;
21804;SDS011;11064;47.102;15.452;2022-09-29T04:39:08;3.67;;;1.38;;
21804;SDS011;11064;47.102;15.452;2022-09-29T04:41:34;2.13;;;1.85;;
21804;SDS011;11064;47.102;15.452;2022-09-29T04:44:01;2.03;;;1.58;;
21804;SDS011;11064;47.102;15.452;2022-09-29T04:46:26;1.50;;;1.40;;
21804;SDS011;11064;47.102;15.452;2022-09-29T04:48:52;1.45;;;1.35;;
21804;SDS011;11064;47.102;15.452;2022-09-29T04:51:18;2.35;;;1.90;;
21804;SDS011;11064;47.102;15.452;2022-09-29T04:53:43;1.73;;;1.40;;
21804;SDS011;11064;47.102;15.452;2022-09-29T04:56:09;1.70;;;1.60;;
21804;SDS011;11064;47.102;15.452;2022-09-29T04:58:35;1.95;;;1.73;;
21804;SDS011;11064;47.102;15.452;2022-09-29T05:01:05;4.35;;;1.80;;
21804;SDS011;11064;47.102;15.452;2022-09-29T05:03:31;3.15;;;1.77;;
21804;SDS011;11064;47.102;15.452;2022-09-29T05:05:57;1.70;;;1.60;;
21804;SDS011;11064;47.102;15.452;2022-09-29T05:08:23;3.63;;;1.40;;
21804;SDS011;11064;47.102;15.452;2022-09-29T05:10:48;1.50;;;1.40;;
21804;SDS011;11064;47.102;15.452;2022-09-29T05:13:15;3.30;;;1.60;;
21804;SDS011;11064;47.102;15.452;2022-09-29T05:15:41;2.33;;;1.70;;
21804;SDS011;11064;47.102;15.452;2022-09-29T05:18:07;1.23;;;1.00;;
21804;SDS011;11064;47.102;15.452;2022-09-29T05:20:33;1.50;;;1.40;;
21804;SDS011;11064;47.102;15.452;2022-09-29T05:22:58;1.08;;;0.98;;
21804;SDS011;11064;47.102;15.452;2022-09-29T05:25:25;2.85;;;1.02;;
21804;SDS011;11064;47.102;15.452;2022-09-29T05:27:52;1.92;;;1.20;;
21804;SDS011;11064;47.102;15.452;2022-09-29T05:30:18;1.80;;;1.20;;
21804;SDS011;11064;47.102;15.452;2022-09-29T05:32:43;1.70;;;1.15;;
21804;SDS011;11064;47.102;15.452;2022-09-29T05:35:10;1.10;;;1.00;;
21804;SDS011;11064;47.102;15.452;2022-09-29T05:37:35;1.13;;;0.80;;
21804;SDS011;11064;47.102;15.452;2022-09-29T05:40:01;5.88;;;1.20;;
21804;SDS011;11064;47.102;15.452;2022-09-29T05:42:28;15.32;;;1.65;;
21804;SDS011;11064;47.102;15.452;2022-09-29T05:44:55;1.55;;;1.20;;
21804;SDS011;11064;47.102;15.452;2022-09-29T05:47:21;20.02;;;2.20;;
21804;SDS011;11064;47.102;15.452;2022-09-29T05:49:47;2.75;;;1.10;;
21804;SDS011;11064;47.102;15.452;2022-09-29T05:52:13;1.02;;;0.90;;
21804;SDS011;11064;47.102;15.452;2022-09-29T05:54:39;0.50;;;0.50;;
21804;SDS011;11064;47.102;15.452;2022-09-29T05:57:05;6.75;;;1.30;;
21804;SDS011;11064;47.102;15.452;2022-09-29T05:59:30;5.65;;;1.55;;
21804;SDS011;11064;47.102;15.452;2022-09-29T06:01:56;15.73;;;1.70;;
21804;SDS011;11064;47.102;15.452;2022-09-29T06:04:22;1.85;;;1.65;;
21804;SDS011;11064;47.102;15.452;2022-09-29T06:06:48;1.42;;;1.33;;
21804;SDS011;11064;47.102;15.452;2022-09-29T06:09:13;1.50;;;1.05;;
21804;SDS011;11064;47.102;15.452;2022-09-29T06:11:39;1.42;;;1.10;;
21804;SDS011;11064;47.102;15.452;2022-09-29T06:14:05;1.08;;;0.80;;
21804;SDS011;11064;47.102;15.452;2022-09-29T06:16:31;0.90;;;0.90;;
21804;SDS011;11064;47.102;15.452;2022-09-29T06:19:01;2.13;;;0.80;;
21804;SDS011;11064;47.102;15.452;2022-09-29T06:23:56;8.10;;;0.90;;
21804;SDS011;11064;47.102;15.452;2022-09-29T06:26:22;2.70;;;1.08;;
21804;SDS011;11064;47.102;15.452;2022-09-29T06:28:50;7.15;;;1.90;;
21804;SDS011;11064;47.102;15.452;2022-09-29T06:31:17;6.25;;;2.30;;
21804;SDS011;11064;47.102;15.452;2022-09-29T06:33:45;11.77;;;4.50;;
21804;SDS011;11064;47.102;15.452;2022-09-29T06:36:15;12.52;;;3.70;;
21804;SDS011;11064;47.102;15.452;2022-09-29T06:39:04;11.75;;;5.97;;
21804;SDS011;11064;47.102;15.452;2022-09-29T06:41:31;16.30;;;5.75;;
21804;SDS011;11064;47.102;15.452;2022-09-29T06:43:57;6.78;;;3.05;;
21804;SDS011;11064;47.102;15.452;2022-09-29T06:46:23;3.67;;;2.10;;
21804;SDS011;11064;47.102;15.452;2022-09-29T06:48:51;3.83;;;1.73;;
21804;SDS011;11064;47.102;15.452;2022-09-29T06:51:23;3.75;;;1.60;;
21804;SDS011;11064;47.102;15.452;2022-09-29T06:53:50;2.28;;;1.45;;
21804;SDS011;11064;47.102;15.452;2022-09-29T06:56:16;6.68;;;1.40;;
21804;SDS011;11064;47.102;15.452;2022-09-29T06:58:43;2.38;;;1.05;;
21804;SDS011;11064;47.102;15.452;2022-09-29T07:01:10;1.92;;;1.17;;
21804;SDS011;11064;47.102;15.452;2022-09-29T07:03:36;2.90;;;1.35;;
21804;SDS011;11064;47.102;15.452;2022-09-29T07:06:06;1.10;;;1.00;;
21804;SDS011;11064;47.102;15.452;2022-09-29T07:08:33;14.10;;;2.20;;
21804;SDS011;11064;47.102;15.452;2022-09-29T07:11:01;5.93;;;1.70;;
21804;SDS011;11064;47.102;15.452;2022-09-29T07:13:30;5.88;;;2.00;;
21804;SDS011;11064;47.102;15.452;2022-09-29T07:16:01;4.82;;;2.90;;
21804;SDS011;11064;47.102;15.452;2022-09-29T07:18:32;6.65;;;3.10;;
21804;SDS011;11064;47.102;15.452;2022-09-29T07:20:59;4.28;;;2.60;;
21804;SDS011;11064;47.102;15.452;2022-09-29T07:23:25;8.27;;;3.20;;
21804;SDS011;11064;47.102;15.452;2022-09-29T07:25:51;5.95;;;2.40;;
21804;SDS011;11064;47.102;15.452;2022-09-29T07:28:17;2.83;;;2.00;;
21804;SDS011;11064;47.102;15.452;2022-09-29T07:30:43;3.13;;;1.90;;
21804;SDS011;11064;47.102;15.452;2022-09-29T07:33:09;3.55;;;1.55;;
21804;SDS011;11064;47.102;15.452;2022-09-29T07:35:35;2.85;;;1.80;;
21804;SDS011;11064;47.102;15.452;2022-09-29T07:38:01;2.08;;;1.13;;
21804;SDS011;11064;47.102;15.452;2022-09-29T07:40:27;4.53;;;1.27;;
21804;SDS011;11064;47.102;15.452;2022-09-29T07:42:53;1.77;;;1.20;;
21804;SDS011;11064;47.102;15.452;2022-09-29T07:45:18;2.78;;;1.38;;
21804;SDS011;11064;47.102;15.452;2022-09-29T07:47:44;6.38;;;1.77;;
21804;SDS011;11064;47.102;15.452;2022-09-29T07:50:10;1.42;;;1.20;;
21804;SDS011;11064;47.102;15.452;2022-09-29T07:52:37;1.73;;;1.00;;
21804;SDS011;11064;47.102;15.452;2022-09-29T07:55:03;3.20;;;1.10;;
21804;SDS011;11064;47.102;15.452;2022-09-29T07:57:31;1.70;;;0.98;;
21804;SDS011;11064;47.102;15.452;2022-09-29T07:59:56;1.15;;;0.90;;
21804;SDS011;11064;47.102;15.452;2022-09-29T08:02:23;1.08;;;0.88;;
21804;SDS011;11064;47.102;15.452;2022-09-29T08:04:49;1.85;;;0.90;;
21804;SDS011;11064;47.102;15.452;2022-09-29T08:07:15;1.45;;;0.82;;
21804;SDS011;11064;47.102;15.452;2022-09-29T08:09:40;2.30;;;1.00;;
21804;SDS011;11064;47.102;15.452;2022-09-29T08:12:07;3.50;;;1.10;;
21804;SDS011;11064;47.102;15.452;2022-09-29T08:14:33;1.90;;;1.02;;
21804;SDS011;11064;47.102;15.452;2022-09-29T08:16:59;1.27;;;1.17;;
21804;SDS011;11064;47.102;15.452;2022-09-29T08:19:25;2.80;;;1.10;;
21804;SDS011;11064;47.102;15.452;2022-09-29T08:21:52;1.92;;;1.30;;
21804;SDS011;11064;47.102;15.452;2022-09-29T08:24:18;1.25;;;1.08;;
21804;SDS011;11064;47.102;15.452;2022-09-29T08:26:44;4.53;;;1.17;;
21804;SDS011;11064;47.102;15.452;2022-09-29T08:29:10;1.15;;;1.00;;
21804;SDS011;11064;47.102;15.452;2022-09-29T08:31:37;1.13;;;1.02;;
21804;SDS011;11064;47.102;15.452;2022-09-29T08:34:02;1.52;;;1.30;;
21804;SDS011;11064;47.102;15.452;2022-09-29T08:36:28;1.38;;;1.20;;
21804;SDS011;11064;47.102;15.452;2022-09-29T08:38:55;1.65;;;1.50;;
21804;SDS011;11064;47.102;15.452;2022-09-29T08:44:08;1.83;;;1.55;;
21804;SDS011;11064;47.102;15.452;2022-09-29T08:46:39;1.88;;;1.50;;
21804;SDS011;11064;47.102;15.452;2022-09-29T08:49:14;1.52;;;1.42;;
21804;SDS011;11064;47.102;15.452;2022-09-29T08:51:46;2.08;;;1.60;;
21804;SDS011;11064;47.102;15.452;2022-09-29T08:56:46;2.28;;;1.40;;
21804;SDS011;11064;47.102;15.452;2022-09-29T08:59:12;2.28;;;1.50;;
21804;SDS011;11064;47.102;15.452;2022-09-29T09:01:46;2.28;;;1.70;;
21804;SDS011;11064;47.102;15.452;2022-09-29T09:07:42;1.60;;;1.42;;
21804;SDS011;11064;47.102;15.452;2022-09-29T09:15:34;2.15;;;1.67;;
21804;SDS011;11064;47.102;15.452;2022-09-29T09:23:21;2.75;;;1.63;;
21804;SDS011;11064;47.102;15.452;2022-09-29T09:26:00;2.10;;;1.77;;
21804;SDS011;11064;47.102;15.452;2022-09-29T09:28:39;2.63;;;1.50;;
21804;SDS011;11064;47.102;15.452;2022-09-29T09:31:17;1.50;;;1.40;;
21804;SDS011;11064;47.102;15.452;2022-09-29T09:34:28;1.60;;;1.50;;
21804;SDS011;11064;47.102;15.452;2022-09-29T09:37:38;1.92;;;1.80;;
21804;SDS011;11064;47.102;15.452;2022-09-29T09:42:59;2.20;;;1.77;;
21804;SDS011;11064;47.102;15.452;2022-09-29T09:45:45;1.75;;;1.65;;
21804;SDS011;11064;47.102;15.452;2022-09-29T09:48:20;2.20;;;1.70;;
21804;SDS011;11064;47.102;15.452;2022-09-29T09:50:50;1.70;;;1.60;;
21804;SDS011;11064;47.102;15.452;2022-09-29T09:53:33;1.90;;;1.80;;
21804;SDS011;11064;47.102;15.452;2022-09-29T10:01:27;3.38;;;1.80;;
21804;SDS011;11064;47.102;15.452;2022-09-29T10:03:53;2.10;;;1.70;;
21804;SDS011;11064;47.102;15.452;2022-09-29T10:06:21;1.85;;;1.50;;
21804;SDS011;11064;47.102;15.452;2022-09-29T10:08:47;1.80;;;1.70;;
21804;SDS011;11064;47.102;15.452;2022-09-29T10:11:20;2.88;;;1.58;;
21804;SDS011;11064;47.102;15.452;2022-09-29T10:13:49;2.65;;;1.60;;
21804;SDS011;11064;47.102;15.452;2022-09-29T10:16:27;1.98;;;1.70;;
21804;SDS011;11064;47.102;15.452;2022-09-29T10:19:19;1.90;;;1.70;;
21804;SDS011;11064;47.102;15.452;2022-09-29T10:21:47;2.72;;;2.00;;
21804;SDS011;11064;47.102;15.452;2022-09-29T10:24:27;2.58;;;2.08;;
21804;SDS011;11064;47.102;15.452;2022-09-29T10:26:57;3.40;;;2.35;;
21804;SDS011;11064;47.102;15.452;2022-09-29T10:29:41;2.60;;;1.77;;
21804;SDS011;11064;47.102;15.452;2022-09-29T10:35:23;4.10;;;2.03;;
21804;SDS011;11064;47.102;15.452;2022-09-29T10:38:00;3.65;;;2.63;;
21804;SDS011;11064;47.102;15.452;2022-09-29T10:40:32;4.68;;;2.65;;
21804;SDS011;11064;47.102;15.452;2022-09-29T10:42:59;4.72;;;2.58;;
21804;SDS011;11064;47.102;15.452;2022-09-29T10:45:48;2.47;;;2.28;;
21804;SDS011;11064;47.102;15.452;2022-09-29T10:48:14;3.00;;;2.25;;
21804;SDS011;11064;47.102;15.452;2022-09-29T10:50:48;2.50;;;2.30;;
21804;SDS011;11064;47.102;15.452;2022-09-29T10:55:57;2.35;;;2.15;;
21804;SDS011;11064;47.102;15.452;2022-09-29T11:01:01;2.45;;;2.20;;
21804;SDS011;11064;47.102;15.452;2022-09-29T11:05:58;3.15;;;2.60;;
21804;SDS011;11064;47.102;15.452;2022-09-29T11:08:52;3.38;;;2.40;;
21804;SDS011;11064;47.102;15.452;2022-09-29T11:13:53;4.53;;;2.55;;
21804;SDS011;11064;47.102;15.452;2022-09-29T11:19:08;3.10;;;2.40;;
21804;SDS011;11064;47.102;15.452;2022-09-29T11:24:21;3.05;;;2.75;;
21804;SDS011;11064;47.102;15.452;2022-09-29T11:27:05;4.05;;;2.45;;
21804;SDS011;11064;47.102;15.452;2022-09-29T11:30:20;9.10;;;2.75;;
21804;SDS011;11064;47.102;15.452;2022-09-29T11:46:44;5.47;;;2.97;;
21804;SDS011;11064;47.102;15.452;2022-09-29T12:01:51;5.80;;;3.28;;
21804;SDS011;11064;47.102;15.452;2022-09-29T12:06:55;3.30;;;3.00;;
21804;SDS011;11064;47.102;15.452;2022-09-29T12:15:02;4.20;;;3.75;;
21804;SDS011;11064;47.102;15.452;2022-09-29T12:17:33;3.97;;;3.58;;
21804;SDS011;11064;47.102;15.452;2022-09-29T12:20:15;4.22;;;2.78;;
21804;SDS011;11064;47.102;15.452;2022-09-29T12:22:42;4.47;;;2.85;;
21804;SDS011;11064;47.102;15.452;2022-09-29T12:25:15;3.20;;;2.90;;
21804;SDS011;11064;47.102;15.452;2022-09-29T12:27:44;4.45;;;2.80;;
21804;SDS011;11064;47.102;15.452;2022-09-29T12:30:25;3.97;;;2.83;;
21804;SDS011;11064;47.102;15.452;2022-09-29T12:36:18;5.85;;;3.10;;
21804;SDS011;11064;47.102;15.452;2022-09-29T12:38:24;3.70;;;3.30;;
21804;SDS011;11064;47.102;15.452;2022-09-29T12:46:18;3.92;;;3.35;;
21804;SDS011;11064;47.102;15.452;2022-09-29T12:57:08;3.67;;;3.17;;
21804;SDS011;11064;47.102;15.452;2022-09-29T13:05:20;3.53;;;3.22;;
21804;SDS011;11064;47.102;15.452;2022-09-29T13:13:12;3.42;;;2.95;;
21804;SDS011;11064;47.102;15.452;2022-09-29T13:18:43;6.07;;;3.25;;
21804;SDS011;11064;47.102;15.452;2022-09-29T13:30:00;5.00;;;3.53;;
21804;SDS011;11064;47.102;15.452;2022-09-29T13:32:30;4.00;;;3.60;;
21804;SDS011;11064;47.102;15.452;2022-09-29T13:34:59;6.40;;;3.20;;
21804;SDS011;11064;47.102;15.452;2022-09-29T13:37:34;5.55;;;4.97;;
21804;SDS011;11064;47.102;15.452;2022-09-29T13:40:17;5.00;;;4.00;;
21804;SDS011;11064;47.102;15.452;2022-09-29T13:42:47;6.97;;;4.93;;
21804;SDS011;11064;47.102;15.452;2022-09-29T13:47:44;142.98;;;7.57;;
21804;SDS011;11064;47.102;15.452;2022-09-29T13:50:48;7.10;;;4.85;;
21804;SDS011;11064;47.102;15.452;2022-09-29T13:54:12;7.13;;;5.72;;
21804;SDS011;11064;47.102;15.452;2022-09-29T13:58:35;12.10;;;6.75;;
21804;SDS011;11064;47.102;15.452;2022-09-29T14:01:06;7.35;;;6.50;;
21804;SDS011;11064;47.102;15.452;2022-09-29T14:03:34;27.67;;;7.43;;
21804;SDS011;11064;47.102;15.452;2022-09-29T14:11:38;189.52;;;13.85;;
21804;SDS011;11064;47.102;15.452;2022-09-29T14:22:51;158.30;;;12.93;;
21804;SDS011;11064;47.102;15.452;2022-09-29T14:27:39;8.77;;;6.80;;
21804;SDS011;11064;47.102;15.452;2022-09-29T14:30:19;7.32;;;6.47;;
21804;SDS011;11064;47.102;15.452;2022-09-29T14:43:41;8.85;;;6.93;;
21804;SDS011;11064;47.102;15.452;2022-09-29T15:00:15;13.30;;;11.88;;
21804;SDS011;11064;47.102;15.452;2022-09-29T15:02:58;9.75;;;7.60;;
21804;SDS011;11064;47.102;15.452;2022-09-29T15:05:28;9.50;;;7.35;;
21804;SDS011;11064;47.102;15.452;2022-09-29T15:07:59;11.50;;;7.22;;
21804;SDS011;11064;47.102;15.452;2022-09-29T15:10:30;9.05;;;6.65;;
21804;SDS011;11064;47.102;15.452;2022-09-29T15:13:17;8.32;;;6.82;;
21804;SDS011;11064;47.102;15.452;2022-09-29T15:21:41;10.38;;;6.72;;
21804;SDS011;11064;47.102;15.452;2022-09-29T15:27:17;8.95;;;7.15;;
21804;SDS011;11064;47.102;15.452;2022-09-29T15:29:45;8.27;;;7.47;;
21804;SDS011;11064;47.102;15.452;2022-09-29T15:32:20;11.98;;;8.98;;
21804;SDS011;11064;47.102;15.452;2022-09-29T15:34:51;37.05;;;25.00;;
21804;SDS011;11064;47.102;15.452;2022-09-29T15:37:18;19.75;;;15.52;;
21804;SDS011;11064;47.102;15.452;2022-09-29T15:39:48;10.70;;;8.32;;
21804;SDS011;11064;47.102;15.452;2022-09-29T15:42:18;9.70;;;7.43;;
21804;SDS011;11064;47.102;15.452;2022-09-29T15:44:53;9.13;;;7.18;;
21804;SDS011;11064;47.102;15.452;2022-09-29T15:47:25;7.57;;;5.78;;
21804;SDS011;11064;47.102;15.452;2022-09-29T15:50:15;8.30;;;5.13;;
21804;SDS011;11064;47.102;15.452;2022-09-29T15:52:41;6.43;;;5.47;;
21804;SDS011;11064;47.102;15.452;2022-09-29T15:55:10;6.65;;;5.30;;
21804;SDS011;11064;47.102;15.452;2022-09-29T16:05:52;9.02;;;5.60;;
21804;SDS011;11064;47.102;15.452;2022-09-29T16:08:36;7.55;;;6.47;;
21804;SDS011;11064;47.102;15.452;2022-09-29T16:11:29;8.25;;;6.68;;
21804;SDS011;11064;47.102;15.452;2022-09-29T16:14:07;29.13;;;7.50;;
21804;SDS011;11064;47.102;15.452;2022-09-29T16:16:45;7.35;;;6.50;;
21804;SDS011;11064;47.102;15.452;2022-09-29T16:19:20;9.27;;;7.75;;
21804;SDS011;11064;47.102;15.452;2022-09-29T16:21:54;10.00;;;7.72;;
21804;SDS011;11064;47.102;15.452;2022-09-29T16:24:31;9.85;;;7.95;;
21804;SDS011;11064;47.102;15.452;2022-09-29T16:26:59;10.05;;;8.18;;
21804;SDS011;11064;47.102;15.452;2022-09-29T16:31:54;272.73;;;19.58;;
21804;SDS011;11064;47.102;15.452;2022-09-29T16:36:48;419.67;;;23.00;;
21804;SDS011;11064;47.102;15.452;2022-09-29T16:39:16;443.75;;;21.38;;
21804;SDS011;11064;47.102;15.452;2022-09-29T16:41:54;646.60;;;28.60;;
21804;SDS011;11064;47.102;15.452;2022-09-29T16:44:39;35.45;;;10.32;;
21804;SDS011;11064;47.102;15.452;2022-09-29T16:47:17;11.73;;;10.20;;
21804;SDS011;11064;47.102;15.452;2022-09-29T16:49:50;13.82;;;10.30;;
21804;SDS011;11064;47.102;15.452;2022-09-29T16:52:26;18.98;;;11.70;;
21804;SDS011;11064;47.102;15.452;2022-09-29T16:55:10;13.35;;;10.77;;
21804;SDS011;11064;47.102;15.452;2022-09-29T16:58:00;13.88;;;10.57;;
21804;SDS011;11064;47.102;15.452;2022-09-29T17:00:29;13.50;;;11.30;;
21804;SDS011;11064;47.102;15.452;2022-09-29T17:02:55;15.95;;;11.77;;
21804;SDS011;11064;47.102;15.452;2022-09-29T17:05:29;16.13;;;11.40;;
21804;SDS011;11064;47.102;15.452;2022-09-29T17:08:02;12.18;;;9.40;;
21804;SDS011;11064;47.102;15.452;2022-09-29T17:10:30;12.95;;;10.65;;
21804;SDS011;11064;47.102;15.452;2022-09-29T17:12:56;13.18;;;10.57;;
21804;SDS011;11064;47.102;15.452;2022-09-29T17:15:22;13.18;;;10.95;;
21804;SDS011;11064;47.102;15.452;2022-09-29T17:17:49;14.73;;;11.02;;
21804;SDS011;11064;47.102;15.452;2022-09-29T17:20:18;11.15;;;9.45;;
21804;SDS011;11064;47.102;15.452;2022-09-29T17:22:45;13.05;;;11.10;;
21804;SDS011;11064;47.102;15.452;2022-09-29T17:25:13;16.73;;;12.77;;
21804;SDS011;11064;47.102;15.452;2022-09-29T17:27:39;13.73;;;10.30;;
21804;SDS011;11064;47.102;15.452;2022-09-29T17:30:26;13.60;;;10.40;;
21804;SDS011;11064;47.102;15.452;2022-09-29T17:32:53;12.35;;;10.18;;
21804;SDS011;11064;47.102;15.452;2022-09-29T17:35:23;12.95;;;9.07;;
21804;SDS011;11064;47.102;15.452;2022-09-29T17:37:54;10.82;;;8.93;;
21804;SDS011;11064;47.102;15.452;2022-09-29T17:45:17;10.07;;;8.52;;
21804;SDS011;11064;47.102;15.452;2022-09-29T17:47:45;10.80;;;8.00;;
21804;SDS011;11064;47.102;15.452;2022-09-29T17:52:54;15.35;;;8.77;;
21804;SDS011;11064;47.102;15.452;2022-09-29T17:55:20;14.75;;;7.93;;
21804;SDS011;11064;47.102;15.452;2022-09-29T17:57:49;11.82;;;7.10;;
21804;SDS011;11064;47.102;15.452;2022-09-29T18:00:24;8.02;;;6.10;;
21804;SDS011;11064;47.102;15.452;2022-09-29T18:03:12;6.82;;;5.78;;
21804;SDS011;11064;47.102;15.452;2022-09-29T18:05:42;6.60;;;5.63;;
21804;SDS011;11064;47.102;15.452;2022-09-29T18:08:17;7.13;;;5.13;;
21804;SDS011;11064;47.102;15.452;2022-09-29T18:10:50;10.68;;;7.28;;
21804;SDS011;11064;47.102;15.452;2022-09-29T18:13:21;9.98;;;8.13;;
21804;SDS011;11064;47.102;15.452;2022-09-29T18:15:51;11.75;;;8.48;;
21804;SDS011;11064;47.102;15.452;2022-09-29T18:18:18;11.32;;;8.98;;
21804;SDS011;11064;47.102;15.452;2022-09-29T18:20:46;11.35;;;8.55;;
21804;SDS011;11064;47.102;15.452;2022-09-29T18:23:14;9.88;;;8.20;;
21804;SDS011;11064;47.102;15.452;2022-09-29T18:25:41;11.43;;;7.85;;
21804;SDS011;11064;47.102;15.452;2022-09-29T18:28:12;11.02;;;8.10;;
21804;SDS011;11064;47.102;15.452;2022-09-29T18:30:39;9.98;;;8.63;;
21804;SDS011;11064;47.102;15.452;2022-09-29T18:33:12;13.25;;;8.80;;
21804;SDS011;11064;47.102;15.452;2022-09-29T18:35:40;13.32;;;9.48;;
21804;SDS011;11064;47.102;15.452;2022-09-29T18:38:07;13.40;;;10.88;;
21804;SDS011;11064;47.102;15.452;2022-09-29T18:40:34;15.23;;;11.27;;
21804;SDS011;11064;47.102;15.452;2022-09-29T18:43:00;12.40;;;10.75;;
21804;SDS011;11064;47.102;15.452;2022-09-29T18:45:29;12.32;;;10.52;;
21804;SDS011;11064;47.102;15.452;2022-09-29T18:47:59;12.35;;;10.70;;
21804;SDS011;11064;47.102;15.452;2022-09-29T18:50:31;14.07;;;9.95;;
21804;SDS011;11064;47.102;15.452;2022-09-29T18:53:07;13.98;;;10.10;;
21804;SDS011;11064;47.102;15.452;2022-09-29T18:55:34;12.32;;;10.15;;
21804;SDS011;11064;47.102;15.452;2022-09-29T18:58:00;13.18;;;10.73;;
21804;SDS011;11064;47.102;15.452;2022-09-29T19:00:28;14.15;;;11.07;;
21804;SDS011;11064;47.102;15.452;2022-09-29T19:02:56;13.45;;;11.32;;
21804;SDS011;11064;47.102;15.452;2022-09-29T19:05:29;12.05;;;10.00;;
21804;SDS011;11064;47.102;15.452;2022-09-29T19:07:57;12.82;;;10.48;;
21804;SDS011;11064;47.102;15.452;2022-09-29T19:10:25;12.40;;;10.30;;
21804;SDS011;11064;47.102;15.452;2022-09-29T19:12:55;13.93;;;10.88;;
21804;SDS011;11064;47.102;15.452;2022-09-29T19:15:24;12.90;;;10.60;;
21804;SDS011;11064;47.102;15.452;2022-09-29T19:17:51;15.95;;;10.20;;
21804;SDS011;11064;47.102;15.452;2022-09-29T19:20:21;24.05;;;11.18;;
21804;SDS011;11064;47.102;15.452;2022-09-29T19:22:48;413.02;;;24.40;;
21804;SDS011;11064;47.102;15.452;2022-09-29T19:25:16;15.13;;;9.60;;
21804;SDS011;11064;47.102;15.452;2022-09-29T19:27:53;16.30;;;9.93;;
21804;SDS011;11064;47.102;15.452;2022-09-29T19:30:21;14.05;;;11.05;;
21804;SDS011;11064;47.102;15.452;2022-09-29T19:32:47;11.68;;;9.68;;
21804;SDS011;11064;47.102;15.452;2022-09-29T19:35:16;13.10;;;9.18;;
21804;SDS011;11064;47.102;15.452;2022-09-29T19:37:47;13.52;;;10.00;;
21804;SDS011;11064;47.102;15.452;2022-09-29T19:40:20;14.75;;;9.18;;
21804;SDS011;11064;47.102;15.452;2022-09-29T19:42:49;11.88;;;9.82;;
21804;SDS011;11064;47.102;15.452;2022-09-29T19:45:15;10.63;;;9.02;;
21804;SDS011;11064;47.102;15.452;2022-09-29T19:47:41;14.63;;;10.30;;
21804;SDS011;11064;47.102;15.452;2022-09-29T19:50:08;15.23;;;10.52;;
21804;SDS011;11064;47.102;15.452;2022-09-29T19:52:53;12.18;;;9.63;;
21804;SDS011;11064;47.102;15.452;2022-09-29T19:55:19;13.63;;;9.95;;
21804;SDS011;11064;47.102;15.452;2022-09-29T19:57:46;15.98;;;10.68;;
21804;SDS011;11064;47.102;15.452;2022-09-29T20:00:14;14.82;;;9.25;;
21804;SDS011;11064;47.102;15.452;2022-09-29T20:02:42;13.05;;;10.43;;
21804;SDS011;11064;47.102;15.452;2022-09-29T20:05:09;10.80;;;8.93;;
21804;SDS011;11064;47.102;15.452;2022-09-29T20:07:36;11.32;;;8.63;;
21804;SDS011;11064;47.102;15.452;2022-09-29T20:10:08;10.75;;;8.15;;
21804;SDS011;11064;47.102;15.452;2022-09-29T20:12:39;10.98;;;8.63;;
21804;SDS011;11064;47.102;15.452;2022-09-29T20:15:05;8.80;;;7.32;;
21804;SDS011;11064;47.102;15.452;2022-09-29T20:17:33;8.85;;;7.25;;
21804;SDS011;11064;47.102;15.452;2022-09-29T20:20:00;8.60;;;7.28;;
21804;SDS011;11064;47.102;15.452;2022-09-29T20:22:26;10.77;;;7.15;;
21804;SDS011;11064;47.102;15.452;2022-09-29T20:24:56;16.88;;;8.18;;
21804;SDS011;11064;47.102;15.452;2022-09-29T20:27:22;8.82;;;7.38;;
21804;SDS011;11064;47.102;15.452;2022-09-29T20:29:48;11.50;;;9.02;;
21804;SDS011;11064;47.102;15.452;2022-09-29T20:32:14;11.85;;;8.50;;
21804;SDS011;11064;47.102;15.452;2022-09-29T20:34:41;11.60;;;8.15;;
21804;SDS011;11064;47.102;15.452;2022-09-29T20:37:06;12.05;;;8.75;;
21804;SDS011;11064;47.102;15.452;2022-09-29T20:39:32;11.00;;;8.52;;
21804;SDS011;11064;47.102;15.452;2022-09-29T20:41:58;11.38;;;8.40;;
21804;SDS011;11064;47.102;15.452;2022-09-29T20:44:23;13.20;;;9.80;;
21804;SDS011;11064;47.102;15.452;2022-09-29T20:46:51;13.38;;;9.65;;
21804;SDS011;11064;47.102;15.452;2022-09-29T20:49:17;15.35;;;9.93;;
21804;SDS011;11064;47.102;15.452;2022-09-29T20:51:43;13.88;;;10.30;;
21804;SDS011;11064;47.102;15.452;2022-09-29T20:54:10;11.75;;;9.70;;
21804;SDS011;11064;47.102;15.452;2022-09-29T20:56:37;11.57;;;9.82;;
21804;SDS011;11064;47.102;15.452;2022-09-29T20:59:07;13.20;;;10.00;;
21804;SDS011;11064;47.102;15.452;2022-09-29T21:01:35;11.57;;;10.10;;
21804;SDS011;11064;47.102;15.452;2022-09-29T21:04:03;13.18;;;10.50;;
21804;SDS011;11064;47.102;15.452;2022-09-29T21:06:33;13.98;;;10.82;;
21804;SDS011;11064;47.102;15.452;2022-09-29T21:09:02;18.75;;;12.88;;
21804;SDS011;11064;47.102;15.452;2022-09-29T21:11:29;22.63;;;12.57;;
21804;SDS011;11064;47.102;15.452;2022-09-29T21:14:02;19.55;;;12.82;;
21804;SDS011;11064;47.102;15.452;2022-09-29T21:16:29;15.75;;;12.40;;
21804;SDS011;11064;47.102;15.452;2022-09-29T21:18:55;301.75;;;22.77;;
21804;SDS011;11064;47.102;15.452;2022-09-29T21:21:20;614.97;;;30.45;;
21804;SDS011;11064;47.102;15.452;2022-09-29T21:23:47;415.05;;;22.48;;
21804;SDS011;11064;47.102;15.452;2022-09-29T21:26:18;520.10;;;29.35;;
21804;SDS011;11064;47.102;15.452;2022-09-29T21:28:48;711.33;;;31.77;;
21804;SDS011;11064;47.102;15.452;2022-09-29T21:31:17;445.08;;;26.65;;
21804;SDS011;11064;47.102;15.452;2022-09-29T21:33:45;443.10;;;21.98;;
21804;SDS011;11064;47.102;15.452;2022-09-29T21:36:14;104.60;;;13.05;;
21804;SDS011;11064;47.102;15.452;2022-09-29T21:38:42;26.73;;;11.60;;
21804;SDS011;11064;47.102;15.452;2022-09-29T21:41:12;26.50;;;10.90;;
21804;SDS011;11064;47.102;15.452;2022-09-29T21:43:40;21.08;;;10.70;;
21804;SDS011;11064;47.102;15.452;2022-09-29T21:46:08;14.45;;;10.52;;
21804;SDS011;11064;47.102;15.452;2022-09-29T21:48:34;130.63;;;14.77;;
21804;SDS011;11064;47.102;15.452;2022-09-29T21:51:10;61.92;;;12.82;;
21804;SDS011;11064;47.102;15.452;2022-09-29T21:53:39;14.88;;;11.65;;
21804;SDS011;11064;47.102;15.452;2022-09-29T21:56:10;14.55;;;11.82;;
21804;SDS011;11064;47.102;15.452;2022-09-29T21:58:37;18.83;;;12.15;;
